^^
Station Historical Data
Daily Summary for January 2, 2018 Units:  English    Metric   Both
« Previous Day
Next Day »
Daily Weekly Monthly Yearly Custom
  High: Low: Average:
Temperature: TemperatureF °F 65.7 °F 77.6 °F
Dew Point: DewpointF °F 29.8 °F 33.7 °F
Humidity: Humidity% 17% 20%
Wind Speed: WindSpeedMPHmph -999.9mph -4mph
Wind Gust: WindSpeedGustMPHmph - -
Wind- - ENE
Pressure: PressureIn in 30.08 in -
Precipitation: 0.00 in    
Historical Graphs
 
 
Tabular Data for January 2, 2018
Time Temperature Dew Point Pressure Wind Wind Speed Wind Gust Humidity Rainfall Rate (Hourly) solar Conditions
TemperatureF °F DewpointF °F PressureIn in Calm     Humidity% HourlyPrecipIn in SoftwareType W/m2 Conditions
09:07 65.7 °F 29.8 °F 30.15 in North 17.9 mph 22.0 mph 26% 0.00 in meteobridge W/m2
09:13 66.0 °F 30.2 °F 30.15 in North 14.1 mph 24.0 mph 26% 0.00 in meteobridge W/m2
09:27 67.1 °F 31.1 °F 30.16 in North 15.0 mph 20.0 mph 26% 0.00 in meteobridge W/m2
09:33 67.5 °F 31.5 °F 30.17 in North 6.0 mph 20.0 mph 26% 0.00 in meteobridge W/m2
09:40 67.6 °F 31.5 °F 30.17 in North 10.1 mph 19.0 mph 26% 0.00 in meteobridge W/m2
09:46 68.4 °F 31.1 °F 30.17 in North 15.0 mph 19.0 mph 25% 0.00 in meteobridge W/m2
09:50 68.5 °F 31.3 °F 30.17 in NNE 15.0 mph 16.0 mph 25% 0.00 in meteobridge W/m2
09:56 69.1 °F 31.8 °F 30.18 in NNW 12.1 mph 16.0 mph 25% 0.00 in meteobridge W/m2
10:02 69.6 °F 31.3 °F 30.18 in North 10.1 mph 13.0 mph 24% 0.00 in meteobridge W/m2
10:08 70.2 °F 31.6 °F 30.18 in North 16.1 mph 17.0 mph 24% 0.00 in meteobridge W/m2
10:14 70.9 °F 31.3 °F 30.18 in NNE 17.9 mph 21.0 mph 23% 0.00 in meteobridge W/m2
10:20 70.9 °F 32.4 °F 30.19 in NNE 8.1 mph 16.0 mph 24% 0.00 in meteobridge W/m2
10:27 71.6 °F 31.8 °F 30.19 in NNE 4.0 mph 15.0 mph 23% 0.00 in meteobridge W/m2
10:33 72.0 °F 32.2 °F 30.20 in NNW 10.1 mph 17.0 mph 23% 0.00 in meteobridge W/m2
10:39 72.1 °F 32.4 °F 30.20 in NNE 11.0 mph 15.0 mph 23% 0.00 in meteobridge W/m2
10:45 72.0 °F 32.2 °F 30.19 in NNE 6.0 mph 23.0 mph 23% 0.00 in meteobridge W/m2
10:51 72.3 °F 31.3 °F 30.19 in North 13.0 mph 17.0 mph 22% 0.00 in meteobridge W/m2
11:03 73.2 °F 32.2 °F 30.19 in North 11.0 mph 17.0 mph 22% 0.00 in meteobridge W/m2
11:10 73.6 °F 32.4 °F 30.20 in North 4.9 mph 12.0 mph 22% 0.00 in meteobridge W/m2
11:16 74.3 °F 33.1 °F 30.20 in NE 2.9 mph 13.0 mph 22% 0.00 in meteobridge W/m2
11:22 74.5 °F 33.1 °F 30.19 in North 6.0 mph 12.0 mph 22% 0.00 in meteobridge W/m2
11:28 74.8 °F 33.4 °F 30.19 in NNW 8.9 mph 12.0 mph 22% 0.00 in meteobridge W/m2
11:34 75.4 °F 32.7 °F 30.18 in North 13.0 mph 13.0 mph 21% 0.00 in meteobridge W/m2
11:36 75.6 °F 32.9 °F 30.19 in NNW 10.1 mph 16.0 mph 21% 0.00 in meteobridge W/m2
11:48 75.9 °F 33.3 °F 30.19 in North 8.1 mph 20.0 mph 21% 0.00 in meteobridge W/m2
11:56 75.7 °F 33.1 °F 30.18 in North 16.1 mph 16.1 mph 21% 0.00 in meteobridge W/m2
12:03 75.6 °F 32.9 °F 30.19 in NNW 6.0 mph 11.0 mph 21% 0.00 in meteobridge W/m2
12:15 77.0 °F 34.2 °F 30.18 in NNE 4.0 mph 7.0 mph 21% 0.00 in meteobridge W/m2
12:21 76.8 °F 34.0 °F 30.18 in NNE 6.9 mph 9.0 mph 21% 0.00 in meteobridge W/m2
12:27 77.2 °F 34.2 °F 30.18 in NNW 4.0 mph 7.0 mph 21% 0.00 in meteobridge W/m2
12:33 78.6 °F 34.2 °F 30.18 in NNE 4.0 mph 10.0 mph 20% 0.00 in meteobridge W/m2
12:39 78.8 °F 34.3 °F 30.18 in North 6.0 mph 13.0 mph 20% 0.00 in meteobridge W/m2
12:45 78.1 °F 33.8 °F 30.18 in NE 2.9 mph 5.0 mph 20% 0.00 in meteobridge W/m2
12:58 80.2 °F 35.6 °F 30.18 in NNE 6.9 mph 7.0 mph 20% 0.00 in meteobridge W/m2
13:10 80.4 °F 34.3 °F 30.17 in West 0.9 mph 4.0 mph 19% 0.00 in meteobridge W/m2
13:16 80.1 °F 34.2 °F 30.17 in North 13.0 mph 16.0 mph 19% 0.00 in meteobridge W/m2
13:22 79.9 °F 35.2 °F 30.17 in NNE 10.1 mph 13.0 mph 20% 0.00 in meteobridge W/m2
13:35 80.8 °F 34.7 °F 30.16 in NW 0.9 mph 11.0 mph 19% 0.00 in meteobridge W/m2
13:37 81.3 °F 35.1 °F 30.16 in North 12.1 mph 14.0 mph 19% 0.00 in meteobridge W/m2
13:43 80.8 °F 34.7 °F 30.16 in NE 6.0 mph 11.0 mph 19% 0.00 in meteobridge W/m2
13:49 82.4 °F 36.0 °F 30.16 in NNW 10.1 mph 10.1 mph 19% 0.00 in meteobridge W/m2
13:55 81.7 °F 35.4 °F 30.15 in NW 6.9 mph 15.0 mph 19% 0.00 in meteobridge W/m2
14:07 80.1 °F 35.4 °F 30.16 in North 4.9 mph 17.0 mph 20% 0.00 in meteobridge W/m2
14:13 80.6 °F 34.5 °F 30.14 in North 6.9 mph 11.0 mph 19% 0.00 in meteobridge W/m2
14:20 81.0 °F 34.9 °F 30.14 in NE 2.9 mph 5.0 mph 19% 0.00 in meteobridge W/m2
14:26 82.6 °F 36.1 °F 30.14 in NNE 11.0 mph 16.0 mph 19% 0.00 in meteobridge W/m2
14:32 81.1 °F 35.1 °F 30.14 in ESE 6.9 mph 17.0 mph 19% 0.00 in meteobridge W/m2
14:40 82.0 °F 35.8 °F 30.14 in NE 6.0 mph 12.0 mph 19% 0.00 in meteobridge W/m2
14:46 82.4 °F 36.0 °F 30.14 in NNE 11.0 mph 13.0 mph 19% 0.00 in meteobridge W/m2
14:52 82.0 °F 35.8 °F 30.13 in North 4.9 mph 14.0 mph 19% 0.00 in meteobridge W/m2
14:58 81.7 °F 35.4 °F 30.13 in NNE 4.9 mph 14.0 mph 19% 0.00 in meteobridge W/m2
15:04 82.0 °F 35.8 °F 30.13 in NNE 14.1 mph 16.0 mph 19% 0.00 in meteobridge W/m2
15:10 81.9 °F 35.6 °F 30.13 in North 14.1 mph 14.1 mph 19% 0.00 in meteobridge W/m2
15:17 82.0 °F 35.8 °F 30.13 in North 11.0 mph 15.0 mph 19% 0.00 in meteobridge W/m2
15:23 82.4 °F 34.7 °F 30.13 in NNW 10.1 mph 12.0 mph 18% 0.00 in meteobridge W/m2
15:29 82.8 °F 34.9 °F 30.12 in NE 6.0 mph 7.0 mph 18% 0.00 in meteobridge W/m2
15:35 83.8 °F 35.8 °F 30.12 in NE 4.9 mph 7.0 mph 18% 0.00 in meteobridge W/m2
15:39 84.2 °F 36.1 °F 30.12 in NNE 4.0 mph 8.0 mph 18% 0.00 in meteobridge W/m2
15:45 84.0 °F 36.0 °F 30.11 in NNE 0.9 mph 6.0 mph 18% 0.00 in meteobridge W/m2
15:51 84.0 °F 36.0 °F 30.11 in NE 2.0 mph 12.0 mph 18% 0.00 in meteobridge W/m2
15:55 83.7 °F 35.6 °F 30.11 in South 2.9 mph 6.0 mph 18% 0.00 in meteobridge W/m2
16:01 85.3 °F 35.6 °F 30.10 in North 6.9 mph 11.0 mph 17% 0.00 in meteobridge W/m2
16:07 85.3 °F 35.6 °F 30.10 in North 13.0 mph 20.0 mph 17% 0.00 in meteobridge W/m2
16:16 83.5 °F 35.6 °F 30.10 in Calm   1.0 mph 18% 0.00 in meteobridge W/m2
16:22 82.9 °F 35.1 °F 30.10 in SSW 2.0 mph 6.0 mph 18% 0.00 in meteobridge W/m2
16:30 83.7 °F 35.6 °F 30.10 in SSE 2.0 mph 6.0 mph 18% 0.00 in meteobridge W/m2
16:36 83.5 °F 35.6 °F 30.09 in NNW 0.9 mph 13.0 mph 18% 0.00 in meteobridge W/m2
16:48 81.0 °F 34.9 °F 30.09 in NNE 2.9 mph 15.0 mph 19% 0.00 in meteobridge W/m2
16:54 81.3 °F 35.1 °F 30.09 in North 10.1 mph 12.0 mph 19% 0.00 in meteobridge W/m2
16:56 81.7 °F 35.4 °F 30.09 in NNE 6.9 mph 10.0 mph 19% 0.00 in meteobridge W/m2
17:02 82.6 °F 34.7 °F 30.09 in NNE 4.9 mph 9.0 mph 18% 0.00 in meteobridge W/m2
17:09 82.0 °F 34.3 °F 30.09 in Calm   11.0 mph 18% 0.00 in meteobridge W/m2
17:15 81.3 °F 33.8 °F 30.09 in NE 6.0 mph 9.0 mph 18% 0.00 in meteobridge W/m2
17:21 81.0 °F 34.9 °F 30.08 in North 2.9 mph 12.0 mph 19% 0.00 in meteobridge W/m2
17:27 80.6 °F 34.5 °F 30.09 in North 4.0 mph 9.0 mph 19% 0.00 in meteobridge W/m2
17:31 80.6 °F 34.5 °F 30.09 in NNE 2.0 mph 5.0 mph 19% 0.00 in meteobridge W/m2
17:37 80.8 °F 34.7 °F 30.09 in NNE 0.9 mph 2.0 mph 19% 0.00 in meteobridge W/m2
17:43 80.8 °F 34.7 °F 30.09 in Calm   5.0 mph 19% 0.00 in meteobridge W/m2
17:49 81.0 °F 34.9 °F 30.09 in NNW 0.9 mph 4.0 mph 19% 0.00 in meteobridge W/m2
17:55 81.0 °F 34.9 °F 30.09 in North 4.0 mph 9.0 mph 19% 0.00 in meteobridge W/m2
18:01 81.0 °F 34.9 °F 30.09 in North 4.9 mph 11.0 mph 19% 0.00 in meteobridge W/m2
18:08 80.4 °F 34.3 °F 30.09 in NNW 0.9 mph 1.0 mph 19% 0.00 in meteobridge W/m2
18:14 80.2 °F 34.2 °F 30.09 in SSW 4.0 mph 8.0 mph 19% 0.00 in meteobridge W/m2
18:20 79.5 °F 33.6 °F 30.10 in West 2.9 mph 5.0 mph 19% 0.00 in meteobridge W/m2
18:26 80.1 °F 34.2 °F 30.10 in NNW 6.9 mph 12.0 mph 19% 0.00 in meteobridge W/m2
18:38 80.2 °F 34.2 °F 30.10 in West 6.9 mph 8.0 mph 19% 0.00 in meteobridge W/m2
18:44 81.0 °F 34.9 °F 30.10 in SE 2.9 mph 5.0 mph 19% 0.00 in meteobridge W/m2
18:51 81.7 °F 35.4 °F 30.10 in Calm   7.0 mph 19% 0.00 in meteobridge W/m2
18:57 81.5 °F 35.2 °F 30.10 in SW 2.0 mph 5.0 mph 19% 0.00 in meteobridge W/m2
19:03 80.4 °F 34.3 °F 30.10 in SW 0.9 mph 4.0 mph 19% 0.00 in meteobridge W/m2
19:09 79.3 °F 33.4 °F 30.10 in West 4.0 mph 5.0 mph 19% 0.00 in meteobridge W/m2
19:15 79.0 °F 34.5 °F 30.11 in WSW 2.0 mph 2.0 mph 20% 0.00 in meteobridge W/m2
19:21 79.0 °F 34.5 °F 30.11 in WSW 2.0 mph -999.0 mph 20% 0.00 in meteobridge W/m2
19:28 79.0 °F 34.5 °F 30.11 in North -999.9 mph -999.0 mph 20% 0.00 in meteobridge W/m2
Regenstein, Windhoek, Namibia
Compliments of Weather Underground - 2.5 mb